Peytona, West Virginia
Current Conditions -  °F | °C
As of 10:54 PM on Saturday 24 Jan 2015 (Local Time) from KCRW Reporting Station
Broken Clouds Broken Clouds  
Wind Chill: 27°   Ceiling: 1600
Heat Index: 35°   Visibility: 8mi
Dew Point: 30°   Wind: 12mph
Humidity: 82%   Direction: 250°WSW
Pressure: 29.84"   Gusts: NA
Location:  38.14°N, 81.68°W
Report Text: KCRW 250354Z 25010KT 8SM BKN016 BKN047 02/M01 A2984 RMK AO2 SLP110 BKN016 V SCT T00171011
Loading
Personal Weather Stations






























Interactive Weather Map New forecast layout! Learn more

10-Day Weather Forecast

Advertisements
Track Severe Weather on mobile